createdAt,value
2022-12-08T00:03:27.497Z,99154.38
2022-12-08T00:08:47.989Z,99145.16
2022-12-08T00:13:49.643Z,99137.06
2022-12-08T00:18:51.327Z,99139.84
2022-12-08T00:23:55.368Z,99141.78
2022-12-08T00:28:57.023Z,99137.31
2022-12-08T00:33:58.985Z,99140.41
2022-12-08T00:39:00.909Z,99137.31
2022-12-08T00:44:02.569Z,99124.22
2022-12-08T00:49:04.906Z,99121.56
2022-12-08T00:54:07.149Z,99120.28
2022-12-08T00:59:08.858Z,99129.09
2022-12-08T01:04:15.511Z,99130.06
2022-12-08T01:09:18.295Z,99128.94
2022-12-08T01:14:20.008Z,99121.81
2022-12-08T01:19:21.678Z,99124.34
2022-12-08T01:24:23.378Z,99116.66
2022-12-08T01:29:26.362Z,99114.44
2022-12-08T01:34:28.028Z,99118.03
2022-12-08T01:39:30.734Z,99107.28
2022-12-08T01:44:32.362Z,99094.28
2022-12-08T01:49:36.413Z,99106.31
2022-12-08T01:54:47.896Z,99108.00
2022-12-08T02:00:08.196Z,99097.69
2022-12-08T02:05:11.835Z,99090.09
2022-12-08T02:10:19.855Z,99082.84
2022-12-08T02:15:31.943Z,99081.16
2022-12-08T02:20:45.844Z,99077.81
2022-12-08T02:26:08.321Z,99075.84
2022-12-08T02:31:44.288Z,99073.91
2022-12-08T02:37:09.820Z,99071.25
2022-12-08T02:42:32.892Z,99067.06
2022-12-08T02:47:35.392Z,99058.84
2022-12-08T02:52:47.649Z,99058.66
2022-12-08T02:58:05.683Z,99050.56
2022-12-08T03:03:07.366Z,99047.06
2022-12-08T03:08:16.969Z,99044.28
2022-12-08T03:13:25.559Z,99046.66
2022-12-08T03:18:31.961Z,99040.66
2022-12-08T03:23:36.932Z,99034.50
2022-12-08T03:28:39.695Z,99040.22
2022-12-08T03:33:45.499Z,99036.91
2022-12-08T03:38:52.438Z,99031.72
2022-12-08T03:43:59.405Z,99016.78
2022-12-08T03:49:01.113Z,99021.66
2022-12-08T03:54:02.795Z,99012.31
2022-12-08T03:59:05.770Z,99007.66
2022-12-08T04:04:07.422Z,99004.03
2022-12-08T04:09:09.444Z,99007.13
2022-12-08T04:14:11.113Z,99009.66
2022-12-08T04:19:12.779Z,98996.09
2022-12-08T04:24:14.454Z,98997.63
2022-12-08T04:29:16.672Z,98987.59
2022-12-08T04:34:18.346Z,98989.41
2022-12-08T04:39:19.994Z,98988.41
2022-12-08T04:44:21.673Z,98986.59
2022-12-08T04:49:23.699Z,98981.03
2022-12-08T04:54:25.402Z,98975.28
2022-12-08T04:59:27.057Z,98979.22
2022-12-08T05:04:28.739Z,98970.41
2022-12-08T05:09:30.443Z,98972.81
2022-12-08T05:14:32.122Z,98965.38
2022-12-08T05:19:33.798Z,98966.09
2022-12-08T05:24:35.702Z,98953.50
2022-12-08T05:29:37.385Z,98956.00
2022-12-08T05:34:39.057Z,98954.31
2022-12-08T05:39:40.757Z,98948.44
2022-12-08T05:44:42.412Z,98947.44
2022-12-08T05:49:44.139Z,98951.50
2022-12-08T05:54:45.816Z,98950.66
2022-12-08T05:59:47.473Z,98959.75
2022-12-08T06:04:49.277Z,98951.34
2022-12-08T06:09:51.000Z,98956.25
2022-12-08T06:14:52.703Z,98958.06
2022-12-08T06:19:54.360Z,98967.56
2022-12-08T06:24:56.031Z,98970.22
2022-12-08T06:29:57.852Z,98972.31
2022-12-08T06:34:59.520Z,98977.47
2022-12-08T06:40:01.416Z,98977.63
2022-12-08T06:45:03.833Z,98983.63
2022-12-08T06:50:07.773Z,98978.00
2022-12-08T06:55:09.974Z,98976.50
2022-12-08T07:00:12.352Z,98982.34
2022-12-08T07:05:14.113Z,98987.13
2022-12-08T07:10:15.796Z,98989.47
2022-12-08T07:15:17.590Z,98985.84
2022-12-08T07:20:19.292Z,98981.13
2022-12-08T07:25:21.451Z,98981.00
2022-12-08T07:30:23.199Z,98974.03
2022-12-08T07:35:24.887Z,98968.56
2022-12-08T07:40:26.612Z,98963.56
2022-12-08T07:45:31.421Z,98975.00
2022-12-08T07:50:34.111Z,98978.63
2022-12-08T07:55:40.510Z,98971.06
2022-12-08T08:00:42.225Z,98971.91
2022-12-08T08:05:49.272Z,98973.84
2022-12-08T08:10:50.987Z,98978.72
2022-12-08T08:15:52.759Z,98985.84
2022-12-08T08:20:54.454Z,98999.09
2022-12-08T08:25:59.537Z,98992.56
2022-12-08T08:31:02.054Z,98988.16
2022-12-08T08:36:08.265Z,98992.63
2022-12-08T08:41:11.533Z,98986.59
2022-12-08T08:46:13.251Z,98988.47
2022-12-08T08:51:15.304Z,98987.31
2022-12-08T08:56:19.466Z,98990.44
2022-12-08T09:01:27.658Z,98987.91
2022-12-08T09:06:29.480Z,99008.47
2022-12-08T09:11:32.411Z,99006.81
2022-12-08T09:16:38.935Z,99003.97
2022-12-08T09:21:43.565Z,98999.22
2022-12-08T09:26:45.781Z,99007.00
2022-12-08T09:31:47.587Z,99010.34
2022-12-08T09:36:49.298Z,98991.44
2022-12-08T09:41:58.655Z,98982.75
2022-12-08T09:47:03.484Z,98985.06
2022-12-08T09:52:12.166Z,98970.69
2022-12-08T09:57:19.307Z,98970.47
2022-12-08T10:02:25.617Z,98957.50
2022-12-08T10:07:39.551Z,98952.38
2022-12-08T10:13:08.123Z,98953.22
2022-12-08T10:18:19.964Z,98948.97
2022-12-08T10:23:30.231Z,98950.16
2022-12-08T10:28:33.628Z,98939.94
2022-12-08T10:33:35.348Z,98946.16
2022-12-08T10:38:39.223Z,98945.22
2022-12-08T10:44:01.846Z,98930.19
2022-12-08T10:49:03.475Z,98915.97
2022-12-08T10:54:06.640Z,98918.63
2022-12-08T10:59:16.508Z,98914.41
2022-12-08T11:04:25.192Z,98900.84
2022-12-08T11:09:39.917Z,98905.56
2022-12-08T11:14:44.573Z,98906.72
2022-12-08T11:20:02.104Z,98904.69
2022-12-08T11:25:17.934Z,98901.47
2022-12-08T11:30:25.200Z,98897.16
2022-12-08T11:35:30.851Z,98893.66
2022-12-08T11:40:37.542Z,98894.03
2022-12-08T11:45:41.133Z,98885.28
2022-12-08T11:51:09.473Z,98886.84
2022-12-08T11:56:20.069Z,98882.78
2022-12-08T12:01:26.622Z,98881.88
2022-12-08T12:07:05.387Z,98881.84
2022-12-08T12:12:22.124Z,98869.91
2022-12-08T12:17:26.552Z,98867.44
2022-12-08T12:22:34.340Z,98866.91
2022-12-08T12:27:40.596Z,98864.53
2022-12-08T12:32:51.757Z,98869.63
2022-12-08T12:37:59.446Z,98859.66
2022-12-08T12:43:01.065Z,98864.31
2022-12-08T12:48:02.850Z,98858.81
2022-12-08T12:53:09.272Z,98856.81
2022-12-08T12:58:27.419Z,98848.16
2022-12-08T13:03:29.129Z,98835.06
2022-12-08T13:08:31.456Z,98849.66
2022-12-08T13:13:33.558Z,98831.47
2022-12-08T13:18:39.825Z,98829.88
2022-12-08T13:23:44.093Z,98822.84
2022-12-08T13:29:13.065Z,98822.50
2022-12-08T13:34:14.705Z,98823.31
2022-12-08T13:39:32.485Z,98809.16
2022-12-08T13:45:19.819Z,98828.22
2022-12-08T13:51:23.537Z,98824.63
2022-12-08T14:01:22.056Z,98830.13
2022-12-08T14:06:46.097Z,98832.94
2022-12-08T14:11:54.911Z,98830.03
2022-12-08T14:17:06.000Z,98827.59
2022-12-08T14:22:17.855Z,98828.16
2022-12-08T14:27:23.335Z,98823.94
2022-12-08T14:32:43.421Z,98820.34
2022-12-08T14:37:48.718Z,98829.09
2022-12-08T14:43:05.191Z,98829.13
2022-12-08T14:48:38.887Z,98828.56
2022-12-08T14:54:13.231Z,98841.63
2022-12-08T14:59:19.863Z,98836.81
2022-12-08T15:04:27.045Z,98833.94
2022-12-08T15:09:34.939Z,98837.66
2022-12-08T15:14:38.592Z,98834.22
2022-12-08T15:19:40.333Z,98842.91
2022-12-08T15:24:42.041Z,98847.25
2022-12-08T15:29:43.906Z,98846.25
2022-12-08T15:34:45.589Z,98845.41
2022-12-08T15:39:47.567Z,98839.56
2022-12-08T15:44:49.248Z,98845.09
2022-12-08T15:49:52.993Z,98843.69
2022-12-08T15:54:54.897Z,98838.94
2022-12-08T15:59:58.830Z,98840.59
2022-12-08T16:05:40.316Z,98833.69
2022-12-08T16:10:25.166Z,98840.22
2022-12-08T16:31:41.684Z,98835.69
2022-12-08T16:36:43.464Z,98843.16
2022-12-08T16:42:03.471Z,98845.25
2022-12-08T16:47:09.300Z,98838.34
2022-12-08T16:52:11.221Z,98838.34
2022-12-08T16:57:12.886Z,98842.84
2022-12-08T17:02:16.533Z,98841.00
2022-12-08T17:07:18.494Z,98848.16
2022-12-08T17:12:20.186Z,98849.50
2022-12-08T17:17:21.886Z,98840.50
2022-12-08T17:22:23.616Z,98845.69
2022-12-08T17:27:25.357Z,98847.91
2022-12-08T17:32:27.223Z,98847.41
2022-12-08T17:37:29.245Z,98843.06
2022-12-08T17:42:30.903Z,98844.56
2022-12-08T17:47:32.655Z,98842.69
2022-12-08T17:52:34.355Z,98842.13
2022-12-08T17:57:36.117Z,98848.47
2022-12-08T18:02:38.058Z,98838.50
2022-12-08T18:07:39.862Z,98846.19
2022-12-08T18:12:42.142Z,98846.47
2022-12-08T18:17:43.927Z,98852.03
2022-12-08T18:22:45.783Z,98852.03
2022-12-08T18:27:47.864Z,98846.19
2022-12-08T18:32:54.184Z,98858.19
2022-12-08T18:38:00.225Z,98840.56
2022-12-08T18:43:01.919Z,98849.91
2022-12-08T18:48:03.909Z,98842.09
2022-12-08T18:53:05.584Z,98849.44
2022-12-08T18:58:07.259Z,98844.28
2022-12-08T19:03:09.220Z,98850.84
2022-12-08T19:08:11.058Z,98854.91
2022-12-08T19:13:12.791Z,98848.69
2022-12-08T19:18:14.516Z,98845.34
2022-12-08T19:23:16.222Z,98834.28
2022-12-08T19:28:17.970Z,98849.13
2022-12-08T19:33:20.084Z,98840.72
2022-12-08T19:38:21.810Z,98854.00
2022-12-08T19:43:42.122Z,98848.84
2022-12-08T19:48:44.160Z,98845.19
2022-12-08T19:53:47.805Z,98852.19
2022-12-08T19:58:49.768Z,98855.69
2022-12-08T20:03:51.455Z,98852.03
2022-12-08T20:08:54.168Z,98863.28
2022-12-08T20:13:56.306Z,98861.47
2022-12-08T20:18:58.118Z,98867.28
2022-12-08T20:23:59.838Z,98865.09
2022-12-08T20:29:01.576Z,98868.38
2022-12-08T20:34:03.347Z,98873.50
2022-12-08T20:39:05.091Z,98872.22
2022-12-08T20:44:06.945Z,98883.38
2022-12-08T20:49:08.787Z,98884.75
2022-12-08T20:54:11.132Z,98876.34
2022-12-08T20:59:16.909Z,98887.19
2022-12-08T21:04:18.952Z,98884.16
2022-12-08T21:09:21.125Z,98887.09
2022-12-08T21:14:23.035Z,98879.97
2022-12-08T21:19:24.945Z,98875.25
2022-12-08T21:24:31.989Z,98886.16
2022-12-08T21:29:35.590Z,98889.00
2022-12-08T21:34:37.657Z,98893.84
2022-12-08T21:39:39.418Z,98890.50
2022-12-08T21:44:41.189Z,98900.88
2022-12-08T21:49:42.879Z,98890.56
2022-12-08T21:54:44.644Z,98901.72
2022-12-08T21:59:46.312Z,98892.63
2022-12-08T22:04:49.839Z,98895.41
2022-12-08T22:09:51.915Z,98899.16
2022-12-08T22:14:53.853Z,98889.03
2022-12-08T22:19:55.714Z,98891.91
2022-12-08T22:24:57.644Z,98893.88
2022-12-08T22:29:59.518Z,98891.81
2022-12-08T22:35:01.303Z,98901.44
2022-12-08T22:40:03.688Z,98890.34
2022-12-08T22:45:06.286Z,98891.28
2022-12-08T22:50:08.463Z,98888.75
2022-12-08T22:55:10.564Z,98895.78
2022-12-08T23:00:12.904Z,98894.16
2022-12-08T23:05:15.279Z,98891.69
2022-12-08T23:10:17.582Z,98900.13
2022-12-08T23:15:19.571Z,98898.22
2022-12-08T23:20:21.262Z,98898.03
2022-12-08T23:25:23.018Z,98894.66
2022-12-08T23:30:25.589Z,98899.97
2022-12-08T23:35:27.338Z,98896.53
2022-12-08T23:40:29.056Z,98902.13
2022-12-08T23:45:31.313Z,98898.91
2022-12-08T23:50:33.033Z,98903.41
2022-12-08T23:55:34.827Z,98888.63
